sensor_id;sensor_type;location;lat;lon;timestamp;P1;durP1;ratioP1;P2;durP2;ratioP2
35223;SDS011;21367;51.930;8.112;2022-07-22T00:02:23;7.28;;;4.13;;
35223;SDS011;21367;51.930;8.112;2022-07-22T00:07:27;7.95;;;4.03;;
35223;SDS011;21367;51.930;8.112;2022-07-22T00:12:31;9.93;;;4.93;;
35223;SDS011;21367;51.930;8.112;2022-07-22T00:17:37;6.63;;;4.60;;
35223;SDS011;21367;51.930;8.112;2022-07-22T00:22:41;14.48;;;4.70;;
35223;SDS011;21367;51.930;8.112;2022-07-22T00:27:45;7.65;;;3.85;;
35223;SDS011;21367;51.930;8.112;2022-07-22T00:32:51;9.57;;;4.72;;
35223;SDS011;21367;51.930;8.112;2022-07-22T00:37:55;12.15;;;4.88;;
35223;SDS011;21367;51.930;8.112;2022-07-22T00:42:59;11.77;;;5.15;;
35223;SDS011;21367;51.930;8.112;2022-07-22T00:48:06;9.73;;;4.90;;
35223;SDS011;21367;51.930;8.112;2022-07-22T00:53:10;8.93;;;4.57;;
35223;SDS011;21367;51.930;8.112;2022-07-22T00:58:14;9.05;;;4.57;;
35223;SDS011;21367;51.930;8.112;2022-07-22T01:03:20;7.53;;;4.20;;
35223;SDS011;21367;51.930;8.112;2022-07-22T01:08:24;6.90;;;3.88;;
35223;SDS011;21367;51.930;8.112;2022-07-22T01:13:28;9.52;;;3.88;;
35223;SDS011;21367;51.930;8.112;2022-07-22T01:18:35;8.90;;;3.78;;
35223;SDS011;21367;51.930;8.112;2022-07-22T01:23:42;5.72;;;3.88;;
35223;SDS011;21367;51.930;8.112;2022-07-22T01:28:46;8.45;;;3.83;;
35223;SDS011;21367;51.930;8.112;2022-07-22T01:39:57;9.63;;;3.35;;
35223;SDS011;21367;51.930;8.112;2022-07-22T01:50:04;6.75;;;3.03;;
35223;SDS011;21367;51.930;8.112;2022-07-22T01:55:14;8.75;;;3.03;;
35223;SDS011;21367;51.930;8.112;2022-07-22T02:00:18;9.63;;;3.40;;
35223;SDS011;21367;51.930;8.112;2022-07-22T02:05:22;6.80;;;3.05;;
35223;SDS011;21367;51.930;8.112;2022-07-22T02:10:30;8.35;;;3.85;;
35223;SDS011;21367;51.930;8.112;2022-07-22T02:15:34;7.40;;;3.58;;
35223;SDS011;21367;51.930;8.112;2022-07-22T02:20:38;4.82;;;2.72;;
35223;SDS011;21367;51.930;8.112;2022-07-22T02:25:44;4.95;;;2.53;;
35223;SDS011;21367;51.930;8.112;2022-07-22T02:30:48;10.05;;;2.13;;
35223;SDS011;21367;51.930;8.112;2022-07-22T02:35:52;6.28;;;2.45;;
35223;SDS011;21367;51.930;8.112;2022-07-22T02:40:58;10.38;;;2.90;;
35223;SDS011;21367;51.930;8.112;2022-07-22T02:46:02;7.50;;;2.38;;
35223;SDS011;21367;51.930;8.112;2022-07-22T02:51:06;6.50;;;2.28;;
35223;SDS011;21367;51.930;8.112;2022-07-22T02:56:12;6.45;;;2.30;;
35223;SDS011;21367;51.930;8.112;2022-07-22T03:01:16;8.65;;;3.33;;
35223;SDS011;21367;51.930;8.112;2022-07-22T03:06:33;6.22;;;2.47;;
35223;SDS011;21367;51.930;8.112;2022-07-22T03:11:47;6.75;;;2.78;;
35223;SDS011;21367;51.930;8.112;2022-07-22T03:16:51;7.65;;;2.90;;
35223;SDS011;21367;51.930;8.112;2022-07-22T03:21:55;9.52;;;3.38;;
35223;SDS011;21367;51.930;8.112;2022-07-22T03:27:02;8.02;;;3.10;;
35223;SDS011;21367;51.930;8.112;2022-07-22T03:32:06;7.97;;;2.90;;
35223;SDS011;21367;51.930;8.112;2022-07-22T03:37:18;9.13;;;3.13;;
35223;SDS011;21367;51.930;8.112;2022-07-22T03:42:25;10.38;;;3.55;;
35223;SDS011;21367;51.930;8.112;2022-07-22T03:47:29;8.32;;;3.80;;
35223;SDS011;21367;51.930;8.112;2022-07-22T03:52:33;8.50;;;4.43;;
35223;SDS011;21367;51.930;8.112;2022-07-22T03:57:43;12.23;;;4.00;;
35223;SDS011;21367;51.930;8.112;2022-07-22T04:02:54;14.77;;;4.50;;
35223;SDS011;21367;51.930;8.112;2022-07-22T04:08:30;8.50;;;3.72;;
35223;SDS011;21367;51.930;8.112;2022-07-22T04:13:38;10.82;;;4.32;;
35223;SDS011;21367;51.930;8.112;2022-07-22T04:18:42;16.67;;;4.35;;
35223;SDS011;21367;51.930;8.112;2022-07-22T04:23:46;11.15;;;3.92;;
35223;SDS011;21367;51.930;8.112;2022-07-22T04:28:57;9.32;;;3.83;;
35223;SDS011;21367;51.930;8.112;2022-07-22T04:34:02;10.63;;;4.53;;
35223;SDS011;21367;51.930;8.112;2022-07-22T04:39:06;17.10;;;5.53;;
35223;SDS011;21367;51.930;8.112;2022-07-22T04:44:17;13.20;;;4.72;;
35223;SDS011;21367;51.930;8.112;2022-07-22T04:49:21;12.48;;;4.88;;
35223;SDS011;21367;51.930;8.112;2022-07-22T04:54:26;12.53;;;5.50;;
35223;SDS011;21367;51.930;8.112;2022-07-22T04:59:34;18.40;;;5.53;;
35223;SDS011;21367;51.930;8.112;2022-07-22T05:04:38;13.18;;;6.10;;
35223;SDS011;21367;51.930;8.112;2022-07-22T05:09:42;14.60;;;5.28;;
35223;SDS011;21367;51.930;8.112;2022-07-22T05:14:51;12.90;;;5.70;;
35223;SDS011;21367;51.930;8.112;2022-07-22T05:19:55;13.23;;;4.70;;
35223;SDS011;21367;51.930;8.112;2022-07-22T05:24:59;16.30;;;5.35;;
35223;SDS011;21367;51.930;8.112;2022-07-22T05:30:06;9.27;;;5.00;;
35223;SDS011;21367;51.930;8.112;2022-07-22T05:35:11;10.15;;;4.10;;
35223;SDS011;21367;51.930;8.112;2022-07-22T05:40:16;13.10;;;3.97;;
35223;SDS011;21367;51.930;8.112;2022-07-22T05:45:23;11.18;;;3.58;;
35223;SDS011;21367;51.930;8.112;2022-07-22T05:50:27;16.58;;;4.68;;
35223;SDS011;21367;51.930;8.112;2022-07-22T05:55:32;16.13;;;4.80;;
35223;SDS011;21367;51.930;8.112;2022-07-22T06:00:38;17.92;;;4.50;;
35223;SDS011;21367;51.930;8.112;2022-07-22T06:05:42;18.77;;;4.82;;
35223;SDS011;21367;51.930;8.112;2022-07-22T06:10:46;17.00;;;4.63;;
35223;SDS011;21367;51.930;8.112;2022-07-22T06:15:53;15.23;;;4.63;;
35223;SDS011;21367;51.930;8.112;2022-07-22T06:20:58;20.70;;;4.38;;
35223;SDS011;21367;51.930;8.112;2022-07-22T06:26:02;18.83;;;5.28;;
35223;SDS011;21367;51.930;8.112;2022-07-22T06:31:10;21.05;;;5.85;;
35223;SDS011;21367;51.930;8.112;2022-07-22T06:36:14;18.60;;;5.53;;
35223;SDS011;21367;51.930;8.112;2022-07-22T06:41:18;20.23;;;5.68;;
35223;SDS011;21367;51.930;8.112;2022-07-22T06:46:37;23.02;;;5.68;;
35223;SDS011;21367;51.930;8.112;2022-07-22T06:51:46;21.17;;;6.28;;
35223;SDS011;21367;51.930;8.112;2022-07-22T06:56:50;18.80;;;5.95;;
35223;SDS011;21367;51.930;8.112;2022-07-22T07:02:06;22.23;;;6.80;;
35223;SDS011;21367;51.930;8.112;2022-07-22T07:07:12;19.00;;;7.05;;
35223;SDS011;21367;51.930;8.112;2022-07-22T07:12:28;21.65;;;8.10;;
35223;SDS011;21367;51.930;8.112;2022-07-22T07:17:46;21.23;;;6.57;;
35223;SDS011;21367;51.930;8.112;2022-07-22T07:22:50;15.40;;;5.55;;
35223;SDS011;21367;51.930;8.112;2022-07-22T07:27:55;23.20;;;5.85;;
35223;SDS011;21367;51.930;8.112;2022-07-22T07:33:19;11.10;;;3.97;;
35223;SDS011;21367;51.930;8.112;2022-07-22T07:38:25;21.48;;;3.92;;
35223;SDS011;21367;51.930;8.112;2022-07-22T07:43:29;11.95;;;3.38;;
35223;SDS011;21367;51.930;8.112;2022-07-22T07:48:37;19.47;;;4.27;;
35223;SDS011;21367;51.930;8.112;2022-07-22T07:53:44;19.85;;;3.65;;
35223;SDS011;21367;51.930;8.112;2022-07-22T07:58:47;14.20;;;3.30;;
35223;SDS011;21367;51.930;8.112;2022-07-22T08:04:07;11.82;;;3.60;;
35223;SDS011;21367;51.930;8.112;2022-07-22T08:14:54;13.50;;;2.70;;
35223;SDS011;21367;51.930;8.112;2022-07-22T08:25:31;15.63;;;2.92;;
35223;SDS011;21367;51.930;8.112;2022-07-22T08:30:34;13.07;;;2.25;;
35223;SDS011;21367;51.930;8.112;2022-07-22T08:35:42;13.07;;;2.60;;
35223;SDS011;21367;51.930;8.112;2022-07-22T08:40:46;10.40;;;2.42;;
35223;SDS011;21367;51.930;8.112;2022-07-22T08:45:50;11.73;;;2.25;;
35223;SDS011;21367;51.930;8.112;2022-07-22T08:50:56;17.15;;;2.60;;
35223;SDS011;21367;51.930;8.112;2022-07-22T08:56:27;8.43;;;2.25;;
35223;SDS011;21367;51.930;8.112;2022-07-22T09:01:31;7.65;;;1.63;;
35223;SDS011;21367;51.930;8.112;2022-07-22T09:06:37;7.72;;;1.70;;
35223;SDS011;21367;51.930;8.112;2022-07-22T09:11:52;8.32;;;1.65;;
35223;SDS011;21367;51.930;8.112;2022-07-22T09:17:35;9.23;;;1.60;;
35223;SDS011;21367;51.930;8.112;2022-07-22T09:23:01;9.82;;;1.60;;
35223;SDS011;21367;51.930;8.112;2022-07-22T09:28:15;5.72;;;1.42;;
35223;SDS011;21367;51.930;8.112;2022-07-22T09:33:45;5.65;;;1.02;;
35223;SDS011;21367;51.930;8.112;2022-07-22T09:38:58;8.07;;;1.83;;
35223;SDS011;21367;51.930;8.112;2022-07-22T09:49:31;4.20;;;1.40;;
35223;SDS011;21367;51.930;8.112;2022-07-22T09:54:59;4.68;;;1.50;;
35223;SDS011;21367;51.930;8.112;2022-07-22T10:00:04;4.88;;;1.42;;
35223;SDS011;21367;51.930;8.112;2022-07-22T10:05:21;6.38;;;1.40;;
35223;SDS011;21367;51.930;8.112;2022-07-22T10:10:32;4.07;;;1.27;;
35223;SDS011;21367;51.930;8.112;2022-07-22T10:15:37;14.15;;;1.88;;
35223;SDS011;21367;51.930;8.112;2022-07-22T10:20:42;11.55;;;1.85;;
35223;SDS011;21367;51.930;8.112;2022-07-22T10:25:53;8.10;;;1.73;;
35223;SDS011;21367;51.930;8.112;2022-07-22T10:31:17;9.02;;;1.88;;
35223;SDS011;21367;51.930;8.112;2022-07-22T10:36:31;9.77;;;2.13;;
35223;SDS011;21367;51.930;8.112;2022-07-22T10:41:40;9.45;;;1.98;;
35223;SDS011;21367;51.930;8.112;2022-07-22T10:46:49;5.82;;;2.28;;
35223;SDS011;21367;51.930;8.112;2022-07-22T10:57:31;14.52;;;2.40;;
35223;SDS011;21367;51.930;8.112;2022-07-22T11:02:36;6.22;;;2.00;;
35223;SDS011;21367;51.930;8.112;2022-07-22T11:07:40;13.95;;;2.35;;
35223;SDS011;21367;51.930;8.112;2022-07-22T11:12:47;9.55;;;2.55;;
35223;SDS011;21367;51.930;8.112;2022-07-22T11:17:55;9.95;;;2.38;;
35223;SDS011;21367;51.930;8.112;2022-07-22T11:23:05;14.80;;;3.63;;
35223;SDS011;21367;51.930;8.112;2022-07-22T11:28:13;9.55;;;2.47;;
35223;SDS011;21367;51.930;8.112;2022-07-22T11:33:31;17.08;;;2.72;;
35223;SDS011;21367;51.930;8.112;2022-07-22T11:38:49;6.20;;;2.35;;
35223;SDS011;21367;51.930;8.112;2022-07-22T11:43:59;8.40;;;2.38;;
35223;SDS011;21367;51.930;8.112;2022-07-22T11:49:05;8.38;;;2.65;;
35223;SDS011;21367;51.930;8.112;2022-07-22T11:54:13;10.68;;;2.70;;
35223;SDS011;21367;51.930;8.112;2022-07-22T11:59:20;7.18;;;2.60;;
35223;SDS011;21367;51.930;8.112;2022-07-22T12:04:27;12.75;;;3.10;;
35223;SDS011;21367;51.930;8.112;2022-07-22T12:09:34;13.30;;;2.92;;
35223;SDS011;21367;51.930;8.112;2022-07-22T12:14:46;10.90;;;2.63;;
35223;SDS011;21367;51.930;8.112;2022-07-22T12:19:51;14.27;;;3.08;;
35223;SDS011;21367;51.930;8.112;2022-07-22T12:24:58;9.18;;;3.08;;
35223;SDS011;21367;51.930;8.112;2022-07-22T12:30:11;8.48;;;2.83;;
35223;SDS011;21367;51.930;8.112;2022-07-22T12:35:16;5.53;;;2.50;;
35223;SDS011;21367;51.930;8.112;2022-07-22T12:40:21;9.25;;;3.17;;
35223;SDS011;21367;51.930;8.112;2022-07-22T12:51:06;18.65;;;2.70;;
35223;SDS011;21367;51.930;8.112;2022-07-22T12:56:14;8.07;;;2.85;;
35223;SDS011;21367;51.930;8.112;2022-07-22T13:01:20;9.73;;;2.67;;
35223;SDS011;21367;51.930;8.112;2022-07-22T13:06:24;11.90;;;2.70;;
35223;SDS011;21367;51.930;8.112;2022-07-22T13:11:27;9.27;;;2.80;;
35223;SDS011;21367;51.930;8.112;2022-07-22T13:16:34;9.70;;;2.65;;
35223;SDS011;21367;51.930;8.112;2022-07-22T13:21:38;11.65;;;3.25;;
35223;SDS011;21367;51.930;8.112;2022-07-22T13:26:41;13.10;;;3.28;;
35223;SDS011;21367;51.930;8.112;2022-07-22T13:31:48;9.20;;;2.67;;
35223;SDS011;21367;51.930;8.112;2022-07-22T13:36:52;6.55;;;2.70;;
35223;SDS011;21367;51.930;8.112;2022-07-22T13:41:55;15.30;;;2.83;;
35223;SDS011;21367;51.930;8.112;2022-07-22T13:47:02;11.55;;;3.10;;
35223;SDS011;21367;51.930;8.112;2022-07-22T13:52:06;14.93;;;3.15;;
35223;SDS011;21367;51.930;8.112;2022-07-22T13:57:10;14.18;;;2.80;;
35223;SDS011;21367;51.930;8.112;2022-07-22T14:02:17;7.32;;;2.83;;
35223;SDS011;21367;51.930;8.112;2022-07-22T14:07:21;4.72;;;2.30;;
35223;SDS011;21367;51.930;8.112;2022-07-22T14:12:24;10.10;;;2.90;;
35223;SDS011;21367;51.930;8.112;2022-07-22T14:17:30;7.22;;;2.53;;
35223;SDS011;21367;51.930;8.112;2022-07-22T14:22:34;11.27;;;2.97;;
35223;SDS011;21367;51.930;8.112;2022-07-22T14:27:38;13.93;;;2.65;;
35223;SDS011;21367;51.930;8.112;2022-07-22T14:32:44;7.60;;;2.78;;
35223;SDS011;21367;51.930;8.112;2022-07-22T14:37:48;17.25;;;3.35;;
35223;SDS011;21367;51.930;8.112;2022-07-22T14:42:51;10.43;;;3.30;;
35223;SDS011;21367;51.930;8.112;2022-07-22T14:48:01;8.48;;;3.20;;
35223;SDS011;21367;51.930;8.112;2022-07-22T14:53:08;10.27;;;3.17;;
35223;SDS011;21367;51.930;8.112;2022-07-22T14:58:12;5.05;;;2.65;;
35223;SDS011;21367;51.930;8.112;2022-07-22T15:03:18;10.10;;;3.78;;
35223;SDS011;21367;51.930;8.112;2022-07-22T15:08:22;9.55;;;3.22;;
35223;SDS011;21367;51.930;8.112;2022-07-22T15:13:26;9.55;;;3.28;;
35223;SDS011;21367;51.930;8.112;2022-07-22T15:18:32;11.25;;;3.40;;
35223;SDS011;21367;51.930;8.112;2022-07-22T15:23:48;9.98;;;3.15;;
35223;SDS011;21367;51.930;8.112;2022-07-22T15:28:51;14.40;;;3.85;;
35223;SDS011;21367;51.930;8.112;2022-07-22T15:33:55;11.98;;;3.60;;
35223;SDS011;21367;51.930;8.112;2022-07-22T15:39:02;11.60;;;3.35;;
35223;SDS011;21367;51.930;8.112;2022-07-22T15:44:06;8.43;;;3.38;;
35223;SDS011;21367;51.930;8.112;2022-07-22T15:49:11;8.47;;;3.60;;
35223;SDS011;21367;51.930;8.112;2022-07-22T15:54:17;8.05;;;3.05;;
35223;SDS011;21367;51.930;8.112;2022-07-22T15:59:21;8.75;;;3.53;;
35223;SDS011;21367;51.930;8.112;2022-07-22T16:04:37;12.77;;;3.17;;
35223;SDS011;21367;51.930;8.112;2022-07-22T16:09:43;9.13;;;3.40;;
35223;SDS011;21367;51.930;8.112;2022-07-22T16:14:47;10.95;;;3.58;;
35223;SDS011;21367;51.930;8.112;2022-07-22T16:19:50;12.13;;;3.55;;
35223;SDS011;21367;51.930;8.112;2022-07-22T16:24:57;10.45;;;3.65;;
35223;SDS011;21367;51.930;8.112;2022-07-22T16:30:01;8.65;;;3.70;;
35223;SDS011;21367;51.930;8.112;2022-07-22T16:35:05;7.03;;;3.22;;
35223;SDS011;21367;51.930;8.112;2022-07-22T16:40:13;15.10;;;3.72;;
35223;SDS011;21367;51.930;8.112;2022-07-22T16:45:16;12.82;;;3.83;;
35223;SDS011;21367;51.930;8.112;2022-07-22T16:50:20;12.10;;;3.67;;
35223;SDS011;21367;51.930;8.112;2022-07-22T16:55:27;6.83;;;3.50;;
35223;SDS011;21367;51.930;8.112;2022-07-22T17:00:31;10.40;;;3.72;;
35223;SDS011;21367;51.930;8.112;2022-07-22T17:05:35;10.43;;;3.97;;
35223;SDS011;21367;51.930;8.112;2022-07-22T17:10:42;10.50;;;3.25;;
35223;SDS011;21367;51.930;8.112;2022-07-22T17:15:46;11.00;;;3.63;;
35223;SDS011;21367;51.930;8.112;2022-07-22T17:20:50;9.88;;;4.10;;
35223;SDS011;21367;51.930;8.112;2022-07-22T17:25:56;9.65;;;4.13;;
35223;SDS011;21367;51.930;8.112;2022-07-22T17:31:01;11.10;;;4.00;;
35223;SDS011;21367;51.930;8.112;2022-07-22T17:36:08;7.75;;;3.35;;
35223;SDS011;21367;51.930;8.112;2022-07-22T17:41:14;6.75;;;3.03;;
35223;SDS011;21367;51.930;8.112;2022-07-22T17:46:18;8.55;;;2.95;;
35223;SDS011;21367;51.930;8.112;2022-07-22T17:51:22;12.95;;;3.22;;
35223;SDS011;21367;51.930;8.112;2022-07-22T17:56:28;12.25;;;3.90;;
35223;SDS011;21367;51.930;8.112;2022-07-22T18:01:32;7.10;;;3.00;;
35223;SDS011;21367;51.930;8.112;2022-07-22T18:06:36;9.15;;;3.38;;
35223;SDS011;21367;51.930;8.112;2022-07-22T18:11:42;9.52;;;3.53;;
35223;SDS011;21367;51.930;8.112;2022-07-22T18:16:46;11.55;;;3.50;;
35223;SDS011;21367;51.930;8.112;2022-07-22T18:21:49;11.40;;;2.88;;
35223;SDS011;21367;51.930;8.112;2022-07-22T18:26:55;11.63;;;3.60;;
35223;SDS011;21367;51.930;8.112;2022-07-22T18:31:59;8.70;;;3.40;;
35223;SDS011;21367;51.930;8.112;2022-07-22T18:37:03;10.00;;;3.13;;
35223;SDS011;21367;51.930;8.112;2022-07-22T18:42:09;10.55;;;4.13;;
35223;SDS011;21367;51.930;8.112;2022-07-22T18:47:13;12.48;;;4.43;;
35223;SDS011;21367;51.930;8.112;2022-07-22T18:52:16;8.50;;;3.72;;
35223;SDS011;21367;51.930;8.112;2022-07-22T18:57:23;7.68;;;3.78;;
35223;SDS011;21367;51.930;8.112;2022-07-22T19:02:26;13.15;;;3.58;;
35223;SDS011;21367;51.930;8.112;2022-07-22T19:07:30;10.75;;;4.07;;
35223;SDS011;21367;51.930;8.112;2022-07-22T19:12:36;11.32;;;4.38;;
35223;SDS011;21367;51.930;8.112;2022-07-22T19:17:40;14.48;;;4.70;;
35223;SDS011;21367;51.930;8.112;2022-07-22T19:22:44;13.15;;;4.85;;
35223;SDS011;21367;51.930;8.112;2022-07-22T19:27:51;14.55;;;8.68;;
35223;SDS011;21367;51.930;8.112;2022-07-22T19:32:54;10.43;;;5.60;;
35223;SDS011;21367;51.930;8.112;2022-07-22T19:37:58;11.00;;;4.55;;
35223;SDS011;21367;51.930;8.112;2022-07-22T19:43:05;10.63;;;4.97;;
35223;SDS011;21367;51.930;8.112;2022-07-22T19:53:12;14.07;;;5.68;;
35223;SDS011;21367;51.930;8.112;2022-07-22T19:58:19;9.02;;;4.65;;
35223;SDS011;21367;51.930;8.112;2022-07-22T20:03:25;13.48;;;5.25;;
35223;SDS011;21367;51.930;8.112;2022-07-22T20:08:28;12.05;;;5.07;;
35223;SDS011;21367;51.930;8.112;2022-07-22T20:13:35;8.48;;;4.80;;
35223;SDS011;21367;51.930;8.112;2022-07-22T20:18:39;14.07;;;4.15;;
35223;SDS011;21367;51.930;8.112;2022-07-22T20:23:42;16.73;;;6.22;;
35223;SDS011;21367;51.930;8.112;2022-07-22T20:28:50;9.10;;;5.83;;
35223;SDS011;21367;51.930;8.112;2022-07-22T20:38:57;13.20;;;6.00;;
35223;SDS011;21367;51.930;8.112;2022-07-22T20:44:04;9.85;;;4.65;;
35223;SDS011;21367;51.930;8.112;2022-07-22T20:49:08;15.95;;;6.20;;
35223;SDS011;21367;51.930;8.112;2022-07-22T20:54:12;15.65;;;7.57;;
35223;SDS011;21367;51.930;8.112;2022-07-22T20:59:18;9.45;;;5.22;;
35223;SDS011;21367;51.930;8.112;2022-07-22T21:04:22;11.35;;;6.45;;
35223;SDS011;21367;51.930;8.112;2022-07-22T21:09:25;12.13;;;5.57;;
35223;SDS011;21367;51.930;8.112;2022-07-22T21:14:32;10.60;;;5.10;;
35223;SDS011;21367;51.930;8.112;2022-07-22T21:19:36;13.30;;;5.47;;
35223;SDS011;21367;51.930;8.112;2022-07-22T21:24:39;16.38;;;5.78;;
35223;SDS011;21367;51.930;8.112;2022-07-22T21:29:46;10.63;;;5.22;;
35223;SDS011;21367;51.930;8.112;2022-07-22T21:34:49;13.95;;;5.45;;
35223;SDS011;21367;51.930;8.112;2022-07-22T21:39:53;12.20;;;5.72;;
35223;SDS011;21367;51.930;8.112;2022-07-22T21:44:59;14.38;;;5.53;;
35223;SDS011;21367;51.930;8.112;2022-07-22T21:50:04;13.38;;;6.10;;
35223;SDS011;21367;51.930;8.112;2022-07-22T21:55:08;12.33;;;5.73;;
35223;SDS011;21367;51.930;8.112;2022-07-22T22:00:15;14.07;;;5.90;;
35223;SDS011;21367;51.930;8.112;2022-07-22T22:05:19;13.10;;;5.05;;
35223;SDS011;21367;51.930;8.112;2022-07-22T22:10:22;13.60;;;5.57;;
35223;SDS011;21367;51.930;8.112;2022-07-22T22:15:29;16.02;;;6.30;;
35223;SDS011;21367;51.930;8.112;2022-07-22T22:25:36;13.13;;;5.97;;
35223;SDS011;21367;51.930;8.112;2022-07-22T22:30:42;12.32;;;5.35;;
35223;SDS011;21367;51.930;8.112;2022-07-22T22:35:46;15.23;;;5.65;;
35223;SDS011;21367;51.930;8.112;2022-07-22T22:40:50;15.45;;;5.43;;
35223;SDS011;21367;51.930;8.112;2022-07-22T22:45:56;12.57;;;5.80;;
35223;SDS011;21367;51.930;8.112;2022-07-22T22:51:00;11.77;;;6.38;;
35223;SDS011;21367;51.930;8.112;2022-07-22T22:56:04;10.82;;;6.13;;
35223;SDS011;21367;51.930;8.112;2022-07-22T23:01:12;13.77;;;6.43;;
35223;SDS011;21367;51.930;8.112;2022-07-22T23:06:15;10.77;;;6.20;;
35223;SDS011;21367;51.930;8.112;2022-07-22T23:11:19;17.70;;;6.45;;
35223;SDS011;21367;51.930;8.112;2022-07-22T23:16:25;12.60;;;6.68;;
35223;SDS011;21367;51.930;8.112;2022-07-22T23:26:32;15.43;;;6.10;;
35223;SDS011;21367;51.930;8.112;2022-07-22T23:31:39;21.55;;;7.35;;
35223;SDS011;21367;51.930;8.112;2022-07-22T23:36:42;21.50;;;7.43;;
35223;SDS011;21367;51.930;8.112;2022-07-22T23:41:46;12.80;;;7.22;;
35223;SDS011;21367;51.930;8.112;2022-07-22T23:46:53;18.48;;;8.15;;
35223;SDS011;21367;51.930;8.112;2022-07-22T23:51:57;15.25;;;8.65;;
35223;SDS011;21367;51.930;8.112;2022-07-22T23:57:00;15.60;;;8.00;;
